KOGS

Ogdensburg International Airport

Ogdensburg, New York, USA
METAR KOGS 201255Z AUTO 22016G24KT 10SM SCT035 03/M01 A2964 RMK AO2 T00321011
Observed Flight Rules
Jan-20 @ 12:55 UTC (17 minutes ago) Visual Flight Rules
Wind Visibility Clouds
220° at 16 knots
 Gusting to 24 knots
10 miles
  • Scattered at 3,500' AGL
Temperatures Readings
Current 3°C / 37°F
Dewpoint -1°C / 30°F
Humidity 75%
Altimeter 29.64" Hg
Pressure 1004 hPa
Elevation 91
METAR KOGS 201255Z AUTO 22016G24KT 10SM SCT035 03/M01 A2964 RMK AO2 T00321011
Observed Flight Rules
Jan-20 @ 12:55 UTC
(17 minutes ago)
VFR
Wind Visibility
220° at 16 knots
 Gusting to 24 knots
10 miles
Clouds
  • Scattered at 3,500' AGL
Temperature Dewpoint
3°C / 37°F -1°C / 30°F
Humidity Altimeter Pressure
75% 29.64" Hg 1004 hPa